Pittsburg, NH

10:58 PM EST on December 24, 2014 (GMT -0500)
APRSWXNET Pittsburg NH US | Change Station
CLOSE
Current Station
Personal Weather Station
Location: Pittsburg, NH
Elevation: 1833 ft
Nearby Weather Stations
Active Advisory: Areal Flood Watch

Elev 1833 ft 45.11 °N, 71.29 °W | Updated 28 minutes ago

Overcast
Overcast
38 °F
Feels Like 38 °F
N
3
Wind Variable Wind from ESE
Gusts 7.0 mph

Today
High -- | Low -- °F
--% Chance of Precip.
Yesterday
High -- | Low -- °F
Precip. -- in
7:22 AM 4:07 PM
Waxing Crescent, 13% visible
Pressure 29.56 in
Visibility 9.0 miles
Clouds Scattered Clouds 400 ft
Overcast 3400 ft
Windchill 38 °F
Dew Point 38 °F
Humidity 100%
Rainfall 0.38 in
Snow Depth Not available.
UV 0 out of 12
Pollen .10 out of 12
Air Quality Not available.
Flu Activity Not available.
METAR KBML 250352Z AUTO 00000KT 9SM SCT004 OVC034 03/02 A2953 RMK AO2 RAE06B22E42 SLP009 P0000 T00330022

More Conditions Fewer Conditions

Pressure 29.56 in
Visibility 9.0 miles
Clouds Scattered Clouds 400 ft
Overcast 3400 ft
Windchill 38 °F
Dew Point 38 °F
Humidity 100%
Rainfall 0.38 in
Snow Depth Not available.
UV 0 out of 12
Pollen .10 out of 12
Air Quality Not available.
Flu Activity Not available.
METAR KBML 250352Z AUTO 00000KT 9SM SCT004 OVC034 03/02 A2953 RMK AO2 RAE06B22E42 SLP009 P0000 T00330022

More Conditions Fewer Conditions

10-Day Weather Forecast

Almanac

Astronomy

Dec. 24, 2014 Rise Set
Actual Time
Civil Twilight
Nautical Twilight
Astronomical Twilight
Moon
Length of Visible Light
Length of Day
Tomorrow will be .
, % of the Moon is Illuminated

Today's Extremes

State Highs State Lows

Community

WunderPhotos

Upload Photos

1,780,225 photos uploaded!

WunderBlogs® & News

Nearby

Air Quality

  Air Quality AQ Index Pollutant
Not available.

Snow Depth

Station Depth Elevation

Earthquake Activity

City Distance Mag. Time & Date
Minimum magnitude displayed is 2.5.

Coastal Water Temperatures

Place Temperature

Nearby Weather Stations